This is the latest recevied weather packets stored in our database for station/object DL8TF-13. If no packets are shown the sender has not sent any weather packets the latest 10 day(s).
| Time | Temp. | Humidity | Pressure | Rain* | Wind** | Luminosity | Snow |
|---|---|---|---|---|---|---|---|
| 1778350489 | 23.89° C | 38% | 982 hPa | - | - | - | - |
| 1778349889 | 24.44° C | 36% | 982 hPa | - | - | - | - |
| 1778349289 | 25° C | 34% | 982 hPa | - | - | - | - |
| 1778348689 | 25° C | 33% | 982 hPa | - | - | - | - |
| 1778348089 | 25.56° C | 32% | 981 hPa | - | - | - | - |
| 1778347489 | 26.11° C | 30% | 982 hPa | - | - | - | - |
| 1778346888 | 26.67° C | 31% | 981 hPa | - | - | - | - |
| 1778346288 | 26.67° C | 29% | 981 hPa | - | - | - | - |
| 1778345688 | 27.22° C | 26% | 981 hPa | - | - | - | - |
| 1778345088 | 27.22° C | 25% | 982 hPa | - | - | - | - |
| 1778344488 | 27.22° C | 25% | 982 hPa | - | - | - | - |
| 1778343888 | 27.78° C | 25% | 982 hPa | - | - | - | - |
| 1778343288 | 28.33° C | 27% | 982 hPa | - | - | - | - |
| 1778342688 | 27.78° C | 24% | 982 hPa | - | - | - | - |
| 1778342088 | 28.89° C | 23% | 982 hPa | - | - | - | - |
| 1778341488 | 28.33° C | 23% | 982 hPa | - | - | - | - |
| 1778340888 | 29.44° C | 23% | 982 hPa | - | - | - | - |
| 1778340288 | 28.89° C | 24% | 982 hPa | - | - | - | - |
| 1778339689 | 28.89° C | 23% | 982 hPa | - | - | - | - |
| 1778339088 | 29.44° C | 23% | 982 hPa | - | - | - | - |
| 1778338488 | 28.33° C | 26% | 982 hPa | - | - | - | - |
| 1778337887 | 29.44° C | 24% | 982 hPa | - | - | - | - |
| 1778337287 | 27.22° C | 25% | 983 hPa | - | - | - | - |
| 1778336687 | 30° C | 21% | 983 hPa | - | - | - | - |
| 1778336087 | 35.56° C | 16% | 983 hPa | - | - | - | - |
* Rain since midnight (hover to see other rain measurements)
** Current wind speed in m/s (hover to see current wind gust speed)